Time;durP1;ratioP1;P1;durP2;ratioP2;P2;SDS_P1;SDS_P2;PMS_P1;PMS_P2;Temp;Humidity;BMP_temperature;BMP_pressure;BME280_temperature;BME280_humidity;BME280_pressure;Samples;Min_cycle;Max_cycle;Signal;HPM_P1;HPM_P2
2021/12/09 00:00:43;;;;;;;6.23;2.67;;;;;;;;;;5072045;28;20278;-64
2021/12/09 00:03:12;;;;;;;5.27;2.90;;;;;;;;;;5064364;28;20217;-63
2021/12/09 00:05:43;;;;;;;5.10;2.30;;;;;;;;;;5076687;28;20574;-64
2021/12/09 00:08:11;;;;;;;2.90;2.20;;;;;;;;;;5062178;28;20294;-62
2021/12/09 00:10:39;;;;;;;2.80;1.77;;;;;;;;;;5055811;28;20229;-63
2021/12/09 00:13:07;;;;;;;1.80;1.70;;;;;;;;;;5064297;28;20699;-62
2021/12/09 00:15:35;;;;;;;2.77;1.80;;;;;;;;;;5071601;28;20212;-63
2021/12/09 00:18:03;;;;;;;2.97;2.17;;;;;;;;;;5064179;28;20656;-64
2021/12/09 00:20:30;;;;;;;4.13;2.60;;;;;;;;;;5083316;28;20225;-62
2021/12/09 00:23:00;;;;;;;2.90;2.60;;;;;;;;;;5070119;28;20228;-64
2021/12/09 00:25:27;;;;;;;3.37;2.80;;;;;;;;;;5075256;28;20214;-62
2021/12/09 00:27:55;;;;;;;2.80;2.60;;;;;;;;;;5074357;28;20333;-62
2021/12/09 00:30:22;;;;;;;3.00;2.30;;;;;;;;;;5076303;28;20226;-64
2021/12/09 00:32:50;;;;;;;3.33;2.50;;;;;;;;;;5072126;28;20236;-62
2021/12/09 00:35:18;;;;;;;3.27;2.30;;;;;;;;;;5059559;28;20213;-62
2021/12/09 00:37:57;;;;;;;3.03;2.57;;;;;;;;;;5058806;28;20201;-62
2021/12/09 00:40:24;;;;;;;2.30;2.10;;;;;;;;;;5059663;28;20229;-64
2021/12/09 00:42:52;;;;;;;4.60;2.40;;;;;;;;;;5077884;28;20259;-62
2021/12/09 00:45:21;;;;;;;2.57;2.27;;;;;;;;;;5055864;28;20259;-62
2021/12/09 00:47:48;;;;;;;3.47;2.40;;;;;;;;;;5078595;28;20213;-62
2021/12/09 00:50:16;;;;;;;3.43;2.43;;;;;;;;;;5056459;28;20295;-62
2021/12/09 00:52:43;;;;;;;2.30;2.00;;;;;;;;;;5071724;28;20232;-64
2021/12/09 00:55:11;;;;;;;2.40;2.20;;;;;;;;;;5069361;28;20202;-62
2021/12/09 00:57:39;;;;;;;2.57;2.37;;;;;;;;;;5062044;28;20198;-64
2021/12/09 01:00:14;;;;;;;1.70;1.60;;;;;;;;;;5073552;28;20999;-62
2021/12/09 01:02:42;;;;;;;1.63;1.53;;;;;;;;;;5059229;28;20200;-63
2021/12/09 01:05:10;;;;;;;1.53;1.43;;;;;;;;;;5067264;28;20202;-64
2021/12/09 01:07:38;;;;;;;2.20;1.80;;;;;;;;;;5073848;28;20255;-65
2021/12/09 01:10:08;;;;;;;1.47;1.33;;;;;;;;;;5080912;28;20797;-63
2021/12/09 01:12:35;;;;;;;2.33;2.13;;;;;;;;;;5064219;28;20237;-64
2021/12/09 01:15:04;;;;;;;2.90;1.80;;;;;;;;;;5057275;28;20217;-65
2021/12/09 01:17:31;;;;;;;1.60;1.50;;;;;;;;;;5077028;28;20195;-64
2021/12/09 01:19:59;;;;;;;1.70;1.60;;;;;;;;;;5073726;28;20218;-64
2021/12/09 01:22:35;;;;;;;2.53;2.40;;;;;;;;;;5055725;28;20210;-63
2021/12/09 01:25:04;;;;;;;2.40;2.30;;;;;;;;;;5070828;28;20207;-65
2021/12/09 01:27:34;;;;;;;1.60;1.50;;;;;;;;;;5062516;28;20205;-64
2021/12/09 01:30:08;;;;;;;1.90;1.80;;;;;;;;;;5060181;28;20675;-62
2021/12/09 01:32:36;;;;;;;1.23;1.23;;;;;;;;;;5055106;28;20276;-63
2021/12/09 01:35:04;;;;;;;1.67;1.30;;;;;;;;;;5071362;28;20202;-64
2021/12/09 01:37:33;;;;;;;5.30;4.40;;;;;;;;;;5060291;28;20198;-63
2021/12/09 01:40:03;;;;;;;3.47;3.13;;;;;;;;;;5059770;28;20201;-62
2021/12/09 01:42:32;;;;;;;1.50;1.40;;;;;;;;;;5073714;28;20209;-64
2021/12/09 01:44:59;;;;;;;1.30;1.20;;;;;;;;;;5078563;28;20233;-64
2021/12/09 01:47:26;;;;;;;1.50;1.20;;;;;;;;;;5063219;28;20255;-62
2021/12/09 01:49:55;;;;;;;1.33;1.33;;;;;;;;;;5054751;28;20209;-64
2021/12/09 01:52:22;;;;;;;1.40;1.40;;;;;;;;;;5058277;28;20226;-64
2021/12/09 01:54:50;;;;;;;1.70;1.47;;;;;;;;;;5079183;28;20233;-64
2021/12/09 01:57:18;;;;;;;1.67;1.50;;;;;;;;;;5072450;28;20650;-64
2021/12/09 01:59:47;;;;;;;1.70;1.60;;;;;;;;;;5078546;28;20206;-64
2021/12/09 02:02:14;;;;;;;1.63;1.53;;;;;;;;;;5057369;28;20274;-63
2021/12/09 02:04:43;;;;;;;1.87;1.73;;;;;;;;;;5064049;28;20205;-64
2021/12/09 02:07:11;;;;;;;3.03;1.90;;;;;;;;;;5080594;28;20212;-64
2021/12/09 02:09:38;;;;;;;6.20;2.37;;;;;;;;;;5078890;28;20209;-63
2021/12/09 02:12:06;;;;;;;3.03;2.40;;;;;;;;;;5077077;28;20237;-64
2021/12/09 02:14:41;;;;;;;3.97;3.57;;;;;;;;;;5059323;28;20284;-62
2021/12/09 02:17:08;;;;;;;2.97;2.77;;;;;;;;;;5060674;28;20549;-64
2021/12/09 02:19:35;;;;;;;3.27;2.90;;;;;;;;;;5067355;28;20231;-63
2021/12/09 02:22:03;;;;;;;4.70;4.20;;;;;;;;;;5067627;28;20225;-64
2021/12/09 02:24:30;;;;;;;6.80;3.17;;;;;;;;;;5062575;28;20267;-64
2021/12/09 02:26:58;;;;;;;6.87;3.33;;;;;;;;;;5055910;28;20236;-63
2021/12/09 02:29:25;;;;;;;5.93;4.10;;;;;;;;;;5061021;28;20205;-62
2021/12/09 02:31:56;;;;;;;3.73;2.90;;;;;;;;;;5060424;28;20217;-63
2021/12/09 02:34:24;;;;;;;5.30;3.40;;;;;;;;;;5066224;28;20198;-63
2021/12/09 02:36:51;;;;;;;5.27;3.53;;;;;;;;;;5066413;28;20738;-62
2021/12/09 02:39:19;;;;;;;5.37;4.00;;;;;;;;;;5063057;28;20198;-63
2021/12/09 02:41:48;;;;;;;7.43;3.70;;;;;;;;;;5076618;28;20300;-63
2021/12/09 02:44:18;;;;;;;8.03;4.10;;;;;;;;;;5056069;28;20683;-63
2021/12/09 02:46:47;;;;;;;7.30;3.93;;;;;;;;;;5078775;28;20210;-62
2021/12/09 02:49:16;;;;;;;5.00;3.43;;;;;;;;;;5064383;28;20209;-64
2021/12/09 02:51:48;;;;;;;5.63;3.37;;;;;;;;;;5074798;28;20577;-63
2021/12/09 02:54:17;;;;;;;5.90;3.40;;;;;;;;;;5062203;28;20202;-62
2021/12/09 02:56:46;;;;;;;4.10;3.07;;;;;;;;;;5053492;28;20205;-62
2021/12/09 02:59:13;;;;;;;7.37;3.37;;;;;;;;;;5059590;28;20225;-62
2021/12/09 03:01:49;;;;;;;3.50;2.90;;;;;;;;;;5056279;28;20229;-63
2021/12/09 03:04:17;;;;;;;5.47;3.80;;;;;;;;;;5055494;28;20221;-62
2021/12/09 03:06:45;;;;;;;6.73;3.47;;;;;;;;;;5056960;28;20209;-64
2021/12/09 03:09:14;;;;;;;9.30;4.17;;;;;;;;;;5065707;28;20295;-64
2021/12/09 03:11:42;;;;;;;7.97;5.00;;;;;;;;;;5061532;28;20217;-64
2021/12/09 03:14:10;;;;;;;9.70;4.63;;;;;;;;;;5053359;28;20603;-64
2021/12/09 03:16:39;;;;;;;5.07;4.00;;;;;;;;;;5062655;28;20698;-62
2021/12/09 03:19:07;;;;;;;4.00;3.57;;;;;;;;;;5059925;28;20266;-64
2021/12/09 03:21:38;;;;;;;4.10;3.70;;;;;;;;;;5075018;28;20271;-63
2021/12/09 03:24:07;;;;;;;4.57;3.03;;;;;;;;;;5052260;28;20210;-63
2021/12/09 03:26:41;;;;;;;3.20;2.90;;;;;;;;;;5056418;28;20683;-62
2021/12/09 03:29:09;;;;;;;3.53;3.23;;;;;;;;;;5078200;28;20201;-65
2021/12/09 03:31:38;;;;;;;5.17;3.60;;;;;;;;;;5058019;28;20634;-62
2021/12/09 03:34:07;;;;;;;3.70;3.30;;;;;;;;;;5080535;28;20312;-63
2021/12/09 03:36:35;;;;;;;5.93;3.60;;;;;;;;;;5057033;28;20202;-63
2021/12/09 03:39:05;;;;;;;4.20;3.80;;;;;;;;;;5057244;28;20214;-62
2021/12/09 03:41:32;;;;;;;6.77;3.70;;;;;;;;;;5057440;28;20563;-62
2021/12/09 03:44:00;;;;;;;5.50;4.50;;;;;;;;;;5059847;28;20285;-62
2021/12/09 03:46:27;;;;;;;5.47;3.87;;;;;;;;;;5056271;28;20217;-62
2021/12/09 03:48:55;;;;;;;9.17;4.90;;;;;;;;;;5078170;28;20221;-63
2021/12/09 03:51:22;;;;;;;5.93;4.57;;;;;;;;;;5060678;28;20295;-63
2021/12/09 03:53:51;;;;;;;7.30;4.80;;;;;;;;;;5075252;28;20237;-62
2021/12/09 03:56:18;;;;;;;6.13;4.90;;;;;;;;;;5056535;28;20271;-63
2021/12/09 03:58:46;;;;;;;11.87;6.20;;;;;;;;;;5066196;28;20694;-64
2021/12/09 04:01:14;;;;;;;6.97;5.30;;;;;;;;;;5064193;28;20214;-64
2021/12/09 04:03:42;;;;;;;5.47;4.80;;;;;;;;;;5064416;28;20225;-64
2021/12/09 04:06:09;;;;;;;7.30;4.47;;;;;;;;;;5067726;28;20210;-64
2021/12/09 04:08:38;;;;;;;10.07;5.03;;;;;;;;;;5055681;28;20605;-62
2021/12/09 04:11:06;;;;;;;5.13;4.13;;;;;;;;;;5064545;28;20279;-62
2021/12/09 04:13:34;;;;;;;7.93;4.20;;;;;;;;;;5076751;28;20264;-64
2021/12/09 04:16:01;;;;;;;16.67;10.27;;;;;;;;;;5079078;28;20197;-63
2021/12/09 04:18:29;;;;;;;8.93;4.30;;;;;;;;;;5058360;28;20216;-62
2021/12/09 04:20:57;;;;;;;9.63;4.40;;;;;;;;;;5061572;28;20651;-63
2021/12/09 04:23:25;;;;;;;4.73;3.93;;;;;;;;;;5064741;28;20235;-63
2021/12/09 04:25:53;;;;;;;5.87;4.20;;;;;;;;;;5077852;28;20216;-64
2021/12/09 04:28:20;;;;;;;6.90;4.10;;;;;;;;;;5062687;28;20626;-63
2021/12/09 04:30:47;;;;;;;10.73;4.67;;;;;;;;;;5064926;28;20633;-63
2021/12/09 04:33:15;;;;;;;5.43;4.00;;;;;;;;;;5063525;28;20738;-63
2021/12/09 04:35:43;;;;;;;7.17;4.43;;;;;;;;;;5065428;28;20206;-62
2021/12/09 04:38:10;;;;;;;11.83;4.83;;;;;;;;;;5062331;28;20213;-63
2021/12/09 04:40:39;;;;;;;7.97;4.10;;;;;;;;;;5051231;28;22306;-62
2021/12/09 04:43:07;;;;;;;8.07;4.90;;;;;;;;;;5053771;28;20205;-63
2021/12/09 04:45:34;;;;;;;12.53;5.33;;;;;;;;;;5075574;28;20209;-63
2021/12/09 04:48:04;;;;;;;6.40;4.37;;;;;;;;;;5068509;28;20216;-63
2021/12/09 04:50:31;;;;;;;5.43;3.80;;;;;;;;;;5068781;28;20629;-63
2021/12/09 04:52:58;;;;;;;9.73;4.70;;;;;;;;;;5070876;28;20225;-63
2021/12/09 04:55:26;;;;;;;7.37;4.70;;;;;;;;;;5072788;28;20205;-63
2021/12/09 04:57:53;;;;;;;8.37;4.27;;;;;;;;;;5053243;28;20635;-63
2021/12/09 05:00:22;;;;;;;10.80;4.00;;;;;;;;;;5053930;28;20307;-63
2021/12/09 05:03:13;;;;;;;9.90;3.90;;;;;;;;;;5066850;28;20243;-63
2021/12/09 05:05:44;;;;;;;5.20;3.53;;;;;;;;;;5056035;28;20896;-63
2021/12/09 05:08:13;;;;;;;3.60;3.30;;;;;;;;;;5072626;28;20209;-62
2021/12/09 05:13:38;;;;;;;6.13;3.60;;;;;;;;;;5043556;28;20225;-63
2021/12/09 05:16:06;;;;;;;6.67;4.23;;;;;;;;;;5053873;28;20201;-62
2021/12/09 05:18:35;;;;;;;7.33;3.53;;;;;;;;;;5049024;28;20256;-63
2021/12/09 05:21:04;;;;;;;6.43;4.30;;;;;;;;;;5056247;28;20806;-63
2021/12/09 05:23:31;;;;;;;5.07;3.83;;;;;;;;;;5058192;28;20695;-63
2021/12/09 05:26:01;;;;;;;15.10;4.83;;;;;;;;;;5046918;28;20545;-63
2021/12/09 05:28:32;;;;;;;7.50;3.87;;;;;;;;;;5073462;28;20263;-62
2021/12/09 05:33:48;;;;;;;7.93;4.07;;;;;;;;;;5060114;28;20217;-63
2021/12/09 05:36:16;;;;;;;8.33;4.40;;;;;;;;;;5057494;28;20210;-63
2021/12/09 05:38:44;;;;;;;8.97;4.67;;;;;;;;;;5060120;28;20725;-63
2021/12/09 05:41:12;;;;;;;6.83;4.07;;;;;;;;;;5078817;28;20271;-62
2021/12/09 05:43:40;;;;;;;11.93;4.57;;;;;;;;;;5060820;28;20202;-63
2021/12/09 05:46:08;;;;;;;4.47;4.00;;;;;;;;;;5075174;28;20724;-63
2021/12/09 05:48:36;;;;;;;8.57;4.40;;;;;;;;;;5075680;28;20236;-62
2021/12/09 05:51:04;;;;;;;7.63;4.73;;;;;;;;;;5061771;28;20738;-62
2021/12/09 05:53:31;;;;;;;8.83;5.07;;;;;;;;;;5081495;28;20638;-63
2021/12/09 05:55:59;;;;;;;9.77;5.27;;;;;;;;;;5060745;28;20695;-63
2021/12/09 05:58:27;;;;;;;10.03;5.03;;;;;;;;;;5064992;28;20261;-63
2021/12/09 06:00:54;;;;;;;7.57;4.13;;;;;;;;;;5061940;28;20228;-63
2021/12/09 06:03:22;;;;;;;9.40;4.13;;;;;;;;;;5062862;28;20231;-62
2021/12/09 06:05:50;;;;;;;6.50;4.20;;;;;;;;;;5070077;28;20601;-63
2021/12/09 06:08:19;;;;;;;8.80;4.13;;;;;;;;;;5062609;28;20209;-63
2021/12/09 06:10:46;;;;;;;4.40;4.00;;;;;;;;;;5058464;28;20299;-64
2021/12/09 06:13:14;;;;;;;10.00;4.50;;;;;;;;;;5059496;28;20676;-63
2021/12/09 06:15:41;;;;;;;11.27;4.50;;;;;;;;;;5063357;28;20530;-63
2021/12/09 06:18:09;;;;;;;9.93;4.67;;;;;;;;;;5052088;28;20205;-63
2021/12/09 06:20:36;;;;;;;7.60;4.10;;;;;;;;;;5058554;28;20229;-63
2021/12/09 06:23:04;;;;;;;6.17;3.70;;;;;;;;;;5074490;28;20627;-62
2021/12/09 06:25:31;;;;;;;8.90;4.57;;;;;;;;;;5077895;28;20202;-62
2021/12/09 06:27:59;;;;;;;6.27;4.33;;;;;;;;;;5076711;28;20201;-63
2021/12/09 06:30:26;;;;;;;8.90;5.10;;;;;;;;;;5074607;28;20229;-62
2021/12/09 06:32:54;;;;;;;8.00;4.50;;;;;;;;;;5077939;28;20305;-63
2021/12/09 06:35:21;;;;;;;8.47;3.50;;;;;;;;;;5053099;28;20205;-63
2021/12/09 06:37:49;;;;;;;8.33;4.13;;;;;;;;;;5057286;28;20202;-63
2021/12/09 06:40:18;;;;;;;6.93;3.63;;;;;;;;;;5063133;28;20226;-63
2021/12/09 06:42:46;;;;;;;6.77;4.03;;;;;;;;;;5065411;28;20575;-63
2021/12/09 06:45:13;;;;;;;11.17;4.73;;;;;;;;;;5073722;28;20255;-61
2021/12/09 06:47:41;;;;;;;8.90;4.40;;;;;;;;;;5066175;28;20213;-63
2021/12/09 06:50:10;;;;;;;4.80;3.60;;;;;;;;;;5075863;28;20206;-63
2021/12/09 06:52:38;;;;;;;8.93;4.10;;;;;;;;;;5072039;28;20206;-64
2021/12/09 06:55:06;;;;;;;8.03;3.93;;;;;;;;;;5058154;28;20226;-63
2021/12/09 06:57:33;;;;;;;7.20;4.07;;;;;;;;;;5065470;28;20217;-64
2021/12/09 07:00:01;;;;;;;7.53;3.93;;;;;;;;;;5071207;28;20202;-64
2021/12/09 07:02:28;;;;;;;5.13;3.53;;;;;;;;;;5059923;28;20202;-63
2021/12/09 07:04:56;;;;;;;5.00;3.53;;;;;;;;;;5077011;28;20209;-64
2021/12/09 07:07:23;;;;;;;10.43;3.70;;;;;;;;;;5057781;28;20263;-64
2021/12/09 07:09:50;;;;;;;7.97;3.60;;;;;;;;;;5074581;28;20278;-62
2021/12/09 07:12:18;;;;;;;5.10;3.50;;;;;;;;;;5061781;28;20213;-63
2021/12/09 07:14:46;;;;;;;7.60;3.60;;;;;;;;;;5074257;28;20230;-64
2021/12/09 07:17:13;;;;;;;9.90;4.47;;;;;;;;;;5076155;28;20205;-62
2021/12/09 07:19:40;;;;;;;8.20;4.63;;;;;;;;;;5080873;28;20222;-62
2021/12/09 07:22:08;;;;;;;10.50;4.13;;;;;;;;;;5060521;28;20217;-64
2021/12/09 07:24:36;;;;;;;8.73;4.00;;;;;;;;;;5079179;28;20201;-63
2021/12/09 07:27:04;;;;;;;10.00;4.33;;;;;;;;;;5061420;28;20236;-62
2021/12/09 07:29:32;;;;;;;10.67;3.90;;;;;;;;;;5059934;28;20201;-62
2021/12/09 07:31:59;;;;;;;10.20;4.47;;;;;;;;;;5067008;28;20646;-63
2021/12/09 07:34:26;;;;;;;10.17;3.80;;;;;;;;;;5080854;28;20290;-62
2021/12/09 07:36:54;;;;;;;6.83;3.70;;;;;;;;;;5080259;28;20206;-62
2021/12/09 07:39:21;;;;;;;6.23;3.03;;;;;;;;;;5077151;28;20586;-62
2021/12/09 07:41:49;;;;;;;6.13;3.13;;;;;;;;;;5080040;28;20263;-63
2021/12/09 07:44:18;;;;;;;5.30;3.03;;;;;;;;;;5066899;28;20213;-62
2021/12/09 07:46:48;;;;;;;7.63;2.73;;;;;;;;;;5073880;28;20206;-64
2021/12/09 07:49:16;;;;;;;8.87;3.00;;;;;;;;;;5071155;28;20210;-63
2021/12/09 07:51:44;;;;;;;7.70;3.23;;;;;;;;;;5074035;28;20315;-62
2021/12/09 07:54:12;;;;;;;6.33;3.57;;;;;;;;;;5063984;28;20241;-63
2021/12/09 07:56:39;;;;;;;8.40;4.30;;;;;;;;;;5059629;28;20682;-63
2021/12/09 07:59:08;;;;;;;7.27;3.30;;;;;;;;;;5064300;28;20213;-63
2021/12/09 08:01:35;;;;;;;6.20;3.83;;;;;;;;;;5062306;28;20229;-62
2021/12/09 08:04:03;;;;;;;8.20;4.00;;;;;;;;;;5076556;28;20205;-64
2021/12/09 08:06:31;;;;;;;6.57;3.60;;;;;;;;;;5053964;28;20217;-62
2021/12/09 08:08:58;;;;;;;5.90;4.07;;;;;;;;;;5074057;28;20620;-65
2021/12/09 08:11:26;;;;;;;9.07;4.07;;;;;;;;;;5056652;28;20236;-63
2021/12/09 08:13:53;;;;;;;5.50;3.50;;;;;;;;;;5056313;28;20255;-63
2021/12/09 08:16:21;;;;;;;6.97;4.07;;;;;;;;;;5063630;28;20210;-63
2021/12/09 08:18:55;;;;;;;6.50;3.77;;;;;;;;;;5076299;28;20205;-64
2021/12/09 08:21:25;;;;;;;6.13;4.03;;;;;;;;;;5064887;28;20222;-62
2021/12/09 08:23:53;;;;;;;7.03;3.50;;;;;;;;;;5075713;28;20259;-63
2021/12/09 08:26:21;;;;;;;6.03;3.80;;;;;;;;;;5058729;28;20256;-64
2021/12/09 08:28:49;;;;;;;4.93;3.60;;;;;;;;;;5062150;28;20205;-63
2021/12/09 08:31:16;;;;;;;3.77;3.40;;;;;;;;;;5057634;28;20242;-63
2021/12/09 08:33:44;;;;;;;4.73;3.43;;;;;;;;;;5062090;28;20230;-63
2021/12/09 08:36:32;;;;;;;4.53;3.63;;;;;;;;;;5062301;28;20213;-64
2021/12/09 08:39:00;;;;;;;4.20;3.30;;;;;;;;;;5077909;28;20205;-63
2021/12/09 08:41:27;;;;;;;6.67;3.30;;;;;;;;;;5079017;28;20230;-63
2021/12/09 08:43:54;;;;;;;7.87;4.10;;;;;;;;;;5072612;28;20268;-63
2021/12/09 08:46:22;;;;;;;4.30;3.93;;;;;;;;;;5062990;28;20222;-64
2021/12/09 08:48:50;;;;;;;4.77;3.30;;;;;;;;;;5056850;28;20214;-62
2021/12/09 08:51:22;;;;;;;7.90;5.83;;;;;;;;;;5058124;28;20626;-64
2021/12/09 08:53:49;;;;;;;6.27;4.73;;;;;;;;;;5058437;28;20225;-63
2021/12/09 08:56:17;;;;;;;4.23;3.57;;;;;;;;;;5061355;28;20213;-64
2021/12/09 08:58:45;;;;;;;3.83;3.37;;;;;;;;;;5059702;28;20239;-63
2021/12/09 09:01:15;;;;;;;3.80;3.00;;;;;;;;;;5065280;28;20282;-64
2021/12/09 09:03:42;;;;;;;4.00;3.13;;;;;;;;;;5063243;28;20278;-62
2021/12/09 09:06:10;;;;;;;4.83;2.70;;;;;;;;;;5078355;28;20206;-62
2021/12/09 09:08:37;;;;;;;5.67;3.80;;;;;;;;;;5073516;28;20773;-64
2021/12/09 09:11:05;;;;;;;2.60;2.40;;;;;;;;;;5062601;28;20217;-62
2021/12/09 09:13:32;;;;;;;4.37;3.97;;;;;;;;;;5073914;28;20213;-64
2021/12/09 09:16:00;;;;;;;2.53;2.20;;;;;;;;;;5067034;28;20208;-63
2021/12/09 09:18:28;;;;;;;2.47;2.27;;;;;;;;;;5072614;28;20206;-64
2021/12/09 09:20:55;;;;;;;2.67;1.97;;;;;;;;;;5072874;28;20275;-64
2021/12/09 09:23:23;;;;;;;4.60;3.67;;;;;;;;;;5078004;28;20193;-64
2021/12/09 09:25:51;;;;;;;2.47;2.20;;;;;;;;;;5075192;28;20217;-64
2021/12/09 09:28:22;;;;;;;3.57;3.30;;;;;;;;;;5054745;28;20241;-64
2021/12/09 09:30:56;;;;;;;4.87;2.03;;;;;;;;;;5073301;28;20229;-64
2021/12/09 09:33:26;;;;;;;2.43;1.80;;;;;;;;;;5077196;28;20288;-64
2021/12/09 09:35:54;;;;;;;3.40;2.10;;;;;;;;;;5074995;28;20928;-63
2021/12/09 09:38:22;;;;;;;2.93;1.90;;;;;;;;;;5059311;28;20473;-62
2021/12/09 09:41:06;;;;;;;2.13;1.93;;;;;;;;;;5080894;28;20230;-61
2021/12/09 09:46:15;;;;;;;3.40;2.40;;;;;;;;;;5061630;28;20304;-62
2021/12/09 09:48:44;;;;;;;5.43;3.90;;;;;;;;;;5075930;28;20244;-63
2021/12/09 09:51:11;;;;;;;25.70;15.93;;;;;;;;;;5072877;28;20222;-62
2021/12/09 09:53:41;;;;;;;8.63;5.60;;;;;;;;;;5055278;28;20251;-64
2021/12/09 09:56:14;;;;;;;6.03;3.17;;;;;;;;;;5062923;28;20201;-64
2021/12/09 09:58:43;;;;;;;4.73;3.33;;;;;;;;;;5076163;28;20289;-63
2021/12/09 10:01:11;;;;;;;9.30;5.47;;;;;;;;;;5072564;28;20226;-64
2021/12/09 10:03:41;;;;;;;14.17;8.00;;;;;;;;;;5076479;28;20300;-64
2021/12/09 10:06:10;;;;;;;29.00;15.17;;;;;;;;;;5080002;28;20205;-61
2021/12/09 10:08:38;;;;;;;19.23;10.37;;;;;;;;;;5061459;28;20232;-62
2021/12/09 10:11:07;;;;;;;6.57;5.17;;;;;;;;;;5062137;28;20275;-63
2021/12/09 10:13:38;;;;;;;8.30;4.57;;;;;;;;;;5076205;28;20192;-63
2021/12/09 10:16:21;;;;;;;12.77;7.83;;;;;;;;;;5071385;28;20212;-64
2021/12/09 10:18:51;;;;;;;7.33;5.77;;;;;;;;;;5055373;28;20206;-63
2021/12/09 10:21:23;;;;;;;5.60;4.20;;;;;;;;;;5065657;28;20225;-63
2021/12/09 10:24:17;;;;;;;3.30;3.00;;;;;;;;;;5081520;28;20229;-65
2021/12/09 10:26:46;;;;;;;4.87;3.90;;;;;;;;;;5054876;28;20582;-64
2021/12/09 10:29:16;;;;;;;4.33;3.50;;;;;;;;;;5075537;28;20202;-64
2021/12/09 10:31:52;;;;;;;4.43;4.03;;;;;;;;;;5067132;28;20247;-62
2021/12/09 10:36:57;;;;;;;4.27;3.80;;;;;;;;;;5061358;28;20208;-62
2021/12/09 10:39:30;;;;;;;5.97;3.70;;;;;;;;;;5079982;28;20281;-62
2021/12/09 10:41:58;;;;;;;4.03;3.63;;;;;;;;;;5064677;28;20250;-63
2021/12/09 10:44:32;;;;;;;6.30;3.37;;;;;;;;;;5060090;28;20209;-64
2021/12/09 10:47:09;;;;;;;4.10;3.70;;;;;;;;;;5076458;28;20218;-62
2021/12/09 10:49:54;;;;;;;4.60;3.40;;;;;;;;;;5060437;28;20663;-64
2021/12/09 10:52:41;;;;;;;5.73;3.53;;;;;;;;;;5077348;28;20229;-64
2021/12/09 10:55:18;;;;;;;4.70;3.60;;;;;;;;;;5080450;28;20233;-64
2021/12/09 10:57:46;;;;;;;4.70;3.77;;;;;;;;;;5073880;28;20210;-62
2021/12/09 11:00:40;;;;;;;3.60;3.30;;;;;;;;;;5062683;28;20235;-62
2021/12/09 11:03:16;;;;;;;8.33;4.20;;;;;;;;;;5065505;28;20629;-64
2021/12/09 11:05:48;;;;;;;4.30;3.90;;;;;;;;;;5080472;28;20581;-63
2021/12/09 11:08:18;;;;;;;3.30;3.00;;;;;;;;;;5066929;28;20218;-62
2021/12/09 11:10:48;;;;;;;4.43;3.53;;;;;;;;;;5063692;28;20267;-64
2021/12/09 11:13:20;;;;;;;6.40;3.57;;;;;;;;;;5064502;28;20464;-64
2021/12/09 11:15:58;;;;;;;3.80;3.40;;;;;;;;;;5074781;28;20302;-62
2021/12/09 11:18:38;;;;;;;4.33;3.27;;;;;;;;;;5069118;28;20293;-64
2021/12/09 11:21:09;;;;;;;4.27;3.67;;;;;;;;;;5079229;28;20237;-62
2021/12/09 11:23:38;;;;;;;5.67;3.37;;;;;;;;;;5077148;28;20206;-64
2021/12/09 11:26:21;;;;;;;3.97;3.40;;;;;;;;;;5063585;28;20217;-64
2021/12/09 11:29:00;;;;;;;6.10;3.43;;;;;;;;;;5074486;28;20209;-64
2021/12/09 11:31:32;;;;;;;3.80;3.50;;;;;;;;;;5060654;28;20244;-64
2021/12/09 11:34:05;;;;;;;4.63;3.60;;;;;;;;;;5077051;28;20703;-63
2021/12/09 11:36:44;;;;;;;4.60;3.60;;;;;;;;;;5076598;28;20211;-62
2021/12/09 11:39:17;;;;;;;7.33;3.30;;;;;;;;;;5061037;28;20217;-64
2021/12/09 11:41:45;;;;;;;6.17;4.13;;;;;;;;;;5072518;28;20239;-64
2021/12/09 11:44:14;;;;;;;4.93;4.23;;;;;;;;;;5073030;28;20214;-65
2021/12/09 11:46:44;;;;;;;7.50;4.70;;;;;;;;;;5061652;28;20231;-64
2021/12/09 11:49:11;;;;;;;10.07;6.27;;;;;;;;;;5072937;28;20202;-65
2021/12/09 11:51:39;;;;;;;12.07;8.00;;;;;;;;;;5069942;28;20223;-64
2021/12/09 11:54:08;;;;;;;10.00;7.37;;;;;;;;;;5068073;28;20221;-61
2021/12/09 11:56:57;;;;;;;10.87;6.33;;;;;;;;;;5076345;28;20198;-64
2021/12/09 12:11:18;;;;;;;8.13;6.27;;;;;;;;;;5063448;28;20232;-64
2021/12/09 12:13:54;;;;;;;8.10;5.20;;;;;;;;;;5076344;28;20209;-63
2021/12/09 12:16:32;;;;;;;8.37;3.77;;;;;;;;;;5073444;28;20290;-65
2021/12/09 12:19:09;;;;;;;4.70;3.70;;;;;;;;;;5055820;28;20207;-62
2021/12/09 12:21:49;;;;;;;4.60;3.60;;;;;;;;;;5071822;28;20228;-61
2021/12/09 12:25:01;;;;;;;5.33;4.33;;;;;;;;;;5052466;28;20205;-64
2021/12/09 12:27:53;;;;;;;6.00;3.60;;;;;;;;;;5062941;28;20212;-62
2021/12/09 12:41:04;;;;;;;8.27;5.17;;;;;;;;;;5056841;28;20692;-63
2021/12/09 12:43:41;;;;;;;4.57;3.30;;;;;;;;;;5055402;28;20205;-64
2021/12/09 12:46:41;;;;;;;3.97;3.40;;;;;;;;;;5055363;28;20197;-63
2021/12/09 12:52:08;;;;;;;4.57;2.83;;;;;;;;;;5060935;28;20217;-62
2021/12/09 12:57:16;;;;;;;3.37;3.10;;;;;;;;;;5053117;28;20210;-64
2021/12/09 12:59:45;;;;;;;3.97;3.00;;;;;;;;;;5074805;28;20607;-64
2021/12/09 13:05:18;;;;;;;4.87;3.23;;;;;;;;;;5062781;28;20736;-62
2021/12/09 13:10:48;;;;;;;3.63;2.30;;;;;;;;;;5061049;28;20745;-64
2021/12/09 13:16:08;;;;;;;8.87;2.83;;;;;;;;;;5056807;28;20233;-63
2021/12/09 13:18:42;;;;;;;4.80;2.77;;;;;;;;;;5058123;28;20725;-63
2021/12/09 13:21:39;;;;;;;3.83;2.57;;;;;;;;;;5075215;28;20247;-62
2021/12/09 13:30:07;;;;;;;3.23;2.40;;;;;;;;;;5060802;28;20595;-62
2021/12/09 13:35:20;;;;;;;9.63;4.83;;;;;;;;;;5058589;28;20229;-64
2021/12/09 13:38:10;;;;;;;3.77;2.30;;;;;;;;;;5065185;28;20217;-62
2021/12/09 13:46:09;;;;;;;5.40;2.50;;;;;;;;;;5061778;28;20206;-64
2021/12/09 13:48:49;;;;;;;7.60;2.80;;;;;;;;;;5074104;28;20205;-63
2021/12/09 13:54:05;;;;;;;4.83;2.57;;;;;;;;;;5063991;28;20229;-64
2021/12/09 13:54:25;;;;;;;4.00;2.13;;;;;;;;;;5054129;28;20208;-63
2021/12/09 13:57:04;;;;;;;6.53;2.37;;;;;;;;;;5064697;28;20233;-62
2021/12/09 13:59:34;;;;;;;3.53;2.40;;;;;;;;;;5074399;28;20213;-63
2021/12/09 14:02:23;;;;;;;3.20;2.30;;;;;;;;;;5077697;28;20229;-63
2021/12/09 14:04:55;;;;;;;4.33;2.30;;;;;;;;;;5057015;28;20240;-63
2021/12/09 14:07:27;;;;;;;4.27;3.20;;;;;;;;;;5055715;28;20325;-63
2021/12/09 14:09:57;;;;;;;3.37;1.90;;;;;;;;;;5076343;28;20213;-64
2021/12/09 14:12:33;;;;;;;4.43;1.90;;;;;;;;;;5053326;28;20260;-64
2021/12/09 14:15:07;;;;;;;7.17;2.20;;;;;;;;;;5058043;28;20224;-63
2021/12/09 14:17:38;;;;;;;5.13;2.33;;;;;;;;;;5061988;28;20284;-63
2021/12/09 14:20:15;;;;;;;6.30;2.33;;;;;;;;;;5079824;28;20221;-62
2021/12/09 14:22:45;;;;;;;4.83;2.43;;;;;;;;;;5079288;28;20194;-62
2021/12/09 14:25:21;;;;;;;5.20;2.40;;;;;;;;;;5080084;28;20206;-63
2021/12/09 14:27:49;;;;;;;5.80;2.40;;;;;;;;;;5070537;28;20266;-64
2021/12/09 14:30:17;;;;;;;5.10;2.30;;;;;;;;;;5060300;28;20221;-64
2021/12/09 14:32:47;;;;;;;4.13;2.30;;;;;;;;;;5073775;28;20206;-62
2021/12/09 14:35:25;;;;;;;4.87;2.27;;;;;;;;;;5060552;28;20233;-62
2021/12/09 14:37:53;;;;;;;4.63;2.10;;;;;;;;;;5080325;28;20206;-64
2021/12/09 14:40:28;;;;;;;5.53;2.60;;;;;;;;;;5075194;28;20229;-64
2021/12/09 14:43:00;;;;;;;4.37;2.37;;;;;;;;;;5072175;28;20209;-62
2021/12/09 14:45:28;;;;;;;6.13;2.20;;;;;;;;;;5054986;28;20201;-64
2021/12/09 14:48:01;;;;;;;4.93;2.50;;;;;;;;;;5074039;28;20206;-62
2021/12/09 14:50:36;;;;;;;3.80;2.43;;;;;;;;;;5058967;28;20249;-64
2021/12/09 14:53:35;;;;;;;3.87;2.10;;;;;;;;;;5075420;28;20198;-63
2021/12/09 14:56:03;;;;;;;7.07;2.57;;;;;;;;;;5074084;28;20230;-64
2021/12/09 14:58:37;;;;;;;2.77;2.13;;;;;;;;;;5062842;28;20205;-62
2021/12/09 15:01:09;;;;;;;4.17;1.73;;;;;;;;;;5056978;28;20647;-63
2021/12/09 15:03:41;;;;;;;4.10;2.10;;;;;;;;;;5078564;28;20202;-63
2021/12/09 15:06:34;;;;;;;3.63;2.10;;;;;;;;;;5058886;28;20268;-63
2021/12/09 15:09:14;;;;;;;3.47;2.00;;;;;;;;;;5053320;28;20198;-62
2021/12/09 15:11:44;;;;;;;6.13;2.50;;;;;;;;;;5061883;28;20644;-63
2021/12/09 15:14:20;;;;;;;4.03;2.53;;;;;;;;;;5064623;28;20197;-63
2021/12/09 15:17:02;;;;;;;5.57;2.70;;;;;;;;;;5060197;28;20233;-62
2021/12/09 15:19:33;;;;;;;7.87;2.53;;;;;;;;;;5064015;28;20327;-63
2021/12/09 15:22:02;;;;;;;5.53;2.60;;;;;;;;;;5077900;28;20228;-64
2021/12/09 15:24:29;;;;;;;10.00;3.27;;;;;;;;;;5063158;28;20667;-63
2021/12/09 15:26:57;;;;;;;9.77;3.00;;;;;;;;;;5064914;28;20209;-63
2021/12/09 15:29:24;;;;;;;9.20;3.50;;;;;;;;;;5061998;28;20218;-62
2021/12/09 15:31:55;;;;;;;7.17;2.93;;;;;;;;;;5076361;28;20236;-63
2021/12/09 15:34:25;;;;;;;9.80;3.20;;;;;;;;;;5065091;28;20740;-64
2021/12/09 15:37:00;;;;;;;8.70;3.10;;;;;;;;;;5078085;28;20279;-63
2021/12/09 15:39:31;;;;;;;7.43;2.80;;;;;;;;;;5072195;28;20200;-63
2021/12/09 15:42:10;;;;;;;6.83;3.80;;;;;;;;;;5053753;28;20236;-62
2021/12/09 15:44:42;;;;;;;8.93;5.87;;;;;;;;;;5063600;28;21661;-63
2021/12/09 15:47:20;;;;;;;3.50;2.93;;;;;;;;;;5062113;28;20304;-64
2021/12/09 15:49:49;;;;;;;2.73;2.40;;;;;;;;;;5065594;28;20216;-62
2021/12/09 15:52:18;;;;;;;4.83;2.57;;;;;;;;;;5062104;28;20270;-63
2021/12/09 15:54:50;;;;;;;4.57;2.63;;;;;;;;;;5077299;28;20206;-61
2021/12/09 15:57:21;;;;;;;9.70;4.13;;;;;;;;;;5060707;28;20236;-61
2021/12/09 15:59:49;;;;;;;8.30;3.70;;;;;;;;;;5059610;28;20556;-63
2021/12/09 16:02:18;;;;;;;8.53;4.23;;;;;;;;;;5059667;28;20463;-63